Airfield :







YOU CAN JOIN US ON...

 
LOGIN :

Register | Disclaimer

   EN    FR    IT 

 









Legend :    VFR   Marginal VFR   IFR   Intensive IFR   Very Intensive IFR
Visi :
Ceiling :
>= 8 km
>= 3000ft
5 to 8 km
1000 to 3000 ft
1500m to 5 km
500 to 1000 ft
800 to 1500m
200 to 500 ft
< 800m
< 200 ft
Symbols :   Thunderstorms  Fog  Heavy snow  Heavy precipitations  Wind > 20 kt






- Airport Elevation : 496 ft
- IATA code : YQX


CYQX - Gander

CURRENT METAR :
  • 091011Z 06008KT 1/2SM R13/5500V6000FT/N R03/5000V5500FT/N SN DRSN VV004 M06/M07 A2984 RMK SN8 VIS HIER SW PRESFR SLP117

EXPIRED METARs :
  • 090952Z 06009KT 1 1/4SM -SN DRSN BKN005 OVC016 M05/M07 A2987 RMK SN4ST3SC1 PRESFR SLP125
  • 090916Z 06007KT 1 3/4SM -SHSN DRSN BKN008 OVC023 M05/M07 A2988 RMK SN3SF2SC3 CVCTV CLD EMBD PRESFR SLP131
  • 090900Z 05008KT 15SM -SHSN BKN027 OVC056 M05/M08 A2991 RMK SC6SC2 CVCTV CLD EMBD PRESFR SLP139
  • 090854Z 05007KT 15SM -SHSN BKN028 OVC056 M05/M09 A2992 RMK SC6SC2 CVCTV CLD EMBD PRESFR SLP144
  • 090800Z 09005KT 15SM FEW030 BKN048 OVC066 M05/M08 A2998 RMK SC1SC5AC2 SLP163

TAF TAF CYQX
Valid from the 09 at 06:00 until the 10 at 06:00 UTC


090540Z 0906/1006 17005KT P6SM FEW030 BKN070
TEMPO 0906/0909 3SM -SN OVC020
FM090900 07010G20KT 3/4SM -SN OVC015
TEMPO 0909/0910 6SM -SN OVC025
FM091000 07012G22KT 1/2SM SN VV007
TEMPO 0910/0912 3SM -SN OVC015
FM091200 05015G25KT 1/4SM +SN BLSN VV003
TEMPO 0912/0920 1SM -SN OVC005
BECMG 0915/0916 02025G35KT
FM092000 35030G50KT 3/4SM -SN BLSN OVC008
BECMG 0922/0924 33025G40KT
FM100400 33020G40KT 3SM -SHSN BLSN OVC020 RMK NXT FCST BY 091200Z
CZQX FIR / North America



MET'MAP, your aeronautical weather chart ! - Copyright ORBIFLY December 2007 - Disclaimer

ORBIFLY MET'MAP TEAM :

Programming & Development : Alexandra Zaïnal
Concept & original design : Baudouin d'Aumeries
Assistance for programming : Marc-Olivier Méhu
Technical & hardware support : Manuel Goepfert

Contact : metmap@orbifly.com




SOURCES & CREDITS :

   NOAA